Time;durP1;ratioP1;P1;durP2;ratioP2;P2;SDS_P1;SDS_P2;PMS_P1;PMS_P2;Temp;Humidity;BMP_temperature;BMP_pressure;BME280_temperature;BME280_humidity;BME280_pressure;Samples;Min_cycle;Max_cycle;Signal;HPM_P1;HPM_P2
2022/05/16 00:01:44;;;;;;;4.53;2.67;;;;;;;;;;5022672;28;20185;-83
2022/05/16 00:04:49;;;;;;;3.57;2.50;;;;;;;;;;5004636;28;20225;-83
2022/05/16 00:07:54;;;;;;;5.83;2.63;;;;;;;;;;5005138;28;20616;-82
2022/05/16 00:10:58;;;;;;;5.87;2.70;;;;;;;;;;5016233;28;20185;-84
2022/05/16 00:14:02;;;;;;;6.23;3.10;;;;;;;;;;5002178;28;20228;-84
2022/05/16 00:17:06;;;;;;;5.70;2.77;;;;;;;;;;5002197;28;20628;-84
2022/05/16 00:20:11;;;;;;;3.73;2.77;;;;;;;;;;5002336;28;20212;-84
2022/05/16 00:23:15;;;;;;;7.57;3.20;;;;;;;;;;5002100;28;20228;-84
2022/05/16 00:26:19;;;;;;;3.23;2.93;;;;;;;;;;5013151;28;20200;-84
2022/05/16 00:29:23;;;;;;;4.97;3.00;;;;;;;;;;5013050;28;20184;-84
2022/05/16 00:32:27;;;;;;;4.67;2.73;;;;;;;;;;4994084;28;20182;-84
2022/05/16 00:35:31;;;;;;;3.77;2.77;;;;;;;;;;5013328;28;20188;-84
2022/05/16 00:38:36;;;;;;;3.03;2.63;;;;;;;;;;5002204;28;20548;-84
2022/05/16 00:41:42;;;;;;;5.60;2.80;;;;;;;;;;5013191;28;20197;-85
2022/05/16 00:44:46;;;;;;;3.87;2.77;;;;;;;;;;5012935;28;20228;-84
2022/05/16 00:47:50;;;;;;;3.40;2.50;;;;;;;;;;5002461;28;20180;-85
2022/05/16 00:50:54;;;;;;;4.00;2.50;;;;;;;;;;5002093;28;20184;-84
2022/05/16 00:54:10;;;;;;;3.43;2.80;;;;;;;;;;5012570;28;20729;-85
2022/05/16 00:57:18;;;;;;;4.67;3.00;;;;;;;;;;4992826;28;20545;-84
2022/05/16 01:00:28;;;;;;;3.50;2.73;;;;;;;;;;5034682;28;20556;-84
2022/05/16 01:06:57;;;;;;;4.33;3.47;;;;;;;;;;5012908;28;20185;-84
2022/05/16 01:10:04;;;;;;;4.40;3.10;;;;;;;;;;5001484;28;20529;-84
2022/05/16 01:13:11;;;;;;;6.10;3.40;;;;;;;;;;5001182;28;20200;-83
2022/05/16 01:16:15;;;;;;;5.10;3.33;;;;;;;;;;5012276;28;20189;-85
2022/05/16 01:19:19;;;;;;;5.53;3.77;;;;;;;;;;5012286;28;20181;-84
2022/05/16 01:22:29;;;;;;;4.83;3.40;;;;;;;;;;5001096;28;20620;-84
2022/05/16 01:25:37;;;;;;;5.03;3.37;;;;;;;;;;5001058;28;20640;-84
2022/05/16 01:28:41;;;;;;;5.67;3.30;;;;;;;;;;5015578;28;20173;-84
2022/05/16 01:31:46;;;;;;;3.97;3.37;;;;;;;;;;5011859;28;20181;-84
2022/05/16 01:34:50;;;;;;;4.67;3.63;;;;;;;;;;5011980;28;20556;-84
2022/05/16 01:41:22;;;;;;;3.67;2.93;;;;;;;;;;5023160;28;20549;-84
2022/05/16 01:44:26;;;;;;;3.90;3.20;;;;;;;;;;5022924;28;20224;-84
2022/05/16 01:47:33;;;;;;;4.13;3.27;;;;;;;;;;5011760;28;20536;-84
2022/05/16 01:50:38;;;;;;;4.43;3.47;;;;;;;;;;5011914;28;20188;-84
2022/05/16 01:53:43;;;;;;;5.17;3.50;;;;;;;;;;5012001;28;20220;-84
2022/05/16 01:56:47;;;;;;;5.27;4.00;;;;;;;;;;5012049;28;20181;-84
2022/05/16 01:59:51;;;;;;;5.60;3.63;;;;;;;;;;5006798;28;20212;-84
2022/05/16 02:02:55;;;;;;;5.97;4.07;;;;;;;;;;5011565;28;20540;-85
2022/05/16 02:05:59;;;;;;;3.83;3.20;;;;;;;;;;5012212;28;20181;-85
2022/05/16 02:09:03;;;;;;;5.90;3.93;;;;;;;;;;5011954;28;20180;-84
2022/05/16 02:12:08;;;;;;;5.97;4.17;;;;;;;;;;5006582;28;20372;-84
2022/05/16 02:15:16;;;;;;;4.50;4.10;;;;;;;;;;5000200;28;20572;-84
2022/05/16 02:18:20;;;;;;;4.60;3.90;;;;;;;;;;5011840;28;20200;-84
2022/05/16 02:24:47;;;;;;;4.13;3.73;;;;;;;;;;5022017;28;20683;-85
2022/05/16 02:27:52;;;;;;;5.93;4.07;;;;;;;;;;5011343;28;20184;-84
2022/05/16 02:30:56;;;;;;;7.87;4.10;;;;;;;;;;5010929;28;20181;-84
2022/05/16 02:34:00;;;;;;;5.00;3.83;;;;;;;;;;5021573;28;20224;-85
2022/05/16 02:37:06;;;;;;;7.13;4.10;;;;;;;;;;4992269;28;20201;-84
2022/05/16 02:40:10;;;;;;;7.50;3.80;;;;;;;;;;4991911;28;20209;-84
2022/05/16 02:43:15;;;;;;;8.23;4.43;;;;;;;;;;5003078;28;20221;-84
2022/05/16 02:46:19;;;;;;;5.23;3.53;;;;;;;;;;5010114;28;20185;-84
2022/05/16 02:49:26;;;;;;;5.43;3.90;;;;;;;;;;5011666;28;20181;-84
2022/05/16 02:52:30;;;;;;;4.50;3.70;;;;;;;;;;4999961;28;20185;-84
2022/05/16 02:55:34;;;;;;;4.00;3.60;;;;;;;;;;5022866;28;20536;-84
2022/05/16 02:58:40;;;;;;;5.57;4.10;;;;;;;;;;5011519;28;20188;-84
2022/05/16 03:01:44;;;;;;;5.60;3.50;;;;;;;;;;5004409;28;20540;-85
2022/05/16 03:04:49;;;;;;;6.70;3.83;;;;;;;;;;5026268;28;20216;-85
2022/05/16 03:07:53;;;;;;;6.73;3.93;;;;;;;;;;5003293;28;20200;-84
2022/05/16 03:10:57;;;;;;;6.10;4.50;;;;;;;;;;5014746;28;20196;-84
2022/05/16 03:14:01;;;;;;;4.47;3.83;;;;;;;;;;5014196;28;20224;-84
2022/05/16 03:17:05;;;;;;;7.40;3.93;;;;;;;;;;5025462;28;20529;-84
2022/05/16 03:20:12;;;;;;;7.27;4.53;;;;;;;;;;5002804;28;20204;-84
2022/05/16 03:23:17;;;;;;;4.97;4.23;;;;;;;;;;5014282;28;20688;-84
2022/05/16 03:26:20;;;;;;;10.47;4.23;;;;;;;;;;5014199;28;20196;-84
2022/05/16 03:29:25;;;;;;;6.70;4.00;;;;;;;;;;5014808;28;20188;-85
2022/05/16 03:32:29;;;;;;;8.23;4.17;;;;;;;;;;5014546;28;20185;-84
2022/05/16 03:35:33;;;;;;;6.23;4.17;;;;;;;;;;5014727;28;20180;-84
2022/05/16 03:42:00;;;;;;;5.70;3.97;;;;;;;;;;5035160;28;20561;-84
2022/05/16 03:45:04;;;;;;;6.53;4.07;;;;;;;;;;5037067;28;20221;-84
2022/05/16 03:48:08;;;;;;;5.63;4.80;;;;;;;;;;5001454;28;20198;-84
2022/05/16 03:51:13;;;;;;;6.20;4.47;;;;;;;;;;4994318;28;20173;-84
2022/05/16 03:54:19;;;;;;;5.47;4.30;;;;;;;;;;5007275;28;20217;-84
2022/05/16 03:57:23;;;;;;;6.57;4.00;;;;;;;;;;5013719;28;20193;-85
2022/05/16 04:00:28;;;;;;;6.50;4.40;;;;;;;;;;5001847;28;20213;-84
2022/05/16 04:03:32;;;;;;;5.70;4.37;;;;;;;;;;5013452;28;20228;-84
2022/05/16 04:06:37;;;;;;;4.97;4.23;;;;;;;;;;5012796;28;20671;-84
2022/05/16 04:09:41;;;;;;;5.80;4.20;;;;;;;;;;5023648;28;20197;-84
2022/05/16 04:12:45;;;;;;;5.93;3.83;;;;;;;;;;5013497;28;20169;-84
2022/05/16 04:15:49;;;;;;;7.27;4.40;;;;;;;;;;5044928;23;20229;-82
2022/05/16 04:18:53;;;;;;;20.03;5.40;;;;;;;;;;4978414;28;20178;-82
2022/05/16 04:21:57;;;;;;;5.70;4.10;;;;;;;;;;4978659;28;20210;-85
2022/05/16 04:25:02;;;;;;;9.60;4.60;;;;;;;;;;4989049;28;20217;-84
2022/05/16 04:28:09;;;;;;;5.30;4.40;;;;;;;;;;4947988;28;20540;-84
2022/05/16 04:31:13;;;;;;;5.00;4.10;;;;;;;;;;4959801;28;20630;-84
2022/05/16 04:34:17;;;;;;;7.47;4.40;;;;;;;;;;4954892;28;20214;-84
2022/05/16 04:37:21;;;;;;;4.97;3.80;;;;;;;;;;4984867;28;20186;-84
2022/05/16 04:40:26;;;;;;;5.67;3.90;;;;;;;;;;4947972;28;20187;-84
2022/05/16 04:43:30;;;;;;;6.63;3.97;;;;;;;;;;4981001;28;20186;-84
2022/05/16 04:46:35;;;;;;;4.43;4.03;;;;;;;;;;4956842;28;20520;-84
2022/05/16 04:49:40;;;;;;;6.20;4.03;;;;;;;;;;4968451;28;20179;-84
2022/05/16 04:52:44;;;;;;;6.83;3.90;;;;;;;;;;4963284;28;20198;-85
2022/05/16 04:55:48;;;;;;;5.77;4.37;;;;;;;;;;4965461;28;20222;-84
2022/05/16 04:58:53;;;;;;;7.07;4.27;;;;;;;;;;4963977;28;20209;-84
2022/05/16 05:01:58;;;;;;;7.10;4.30;;;;;;;;;;4983636;28;20225;-84
2022/05/16 05:05:03;;;;;;;7.50;4.90;;;;;;;;;;4983195;28;20221;-85
2022/05/16 05:08:08;;;;;;;5.97;3.80;;;;;;;;;;4983379;28;20182;-84
2022/05/16 05:14:35;;;;;;;4.37;3.60;;;;;;;;;;4983020;28;20233;-83
2022/05/16 05:17:41;;;;;;;11.43;5.13;;;;;;;;;;4945804;28;20186;-84
2022/05/16 05:20:45;;;;;;;10.90;4.27;;;;;;;;;;4982896;28;20217;-84
2022/05/16 05:23:49;;;;;;;4.73;4.33;;;;;;;;;;4982097;28;20198;-83
2022/05/16 05:26:53;;;;;;;6.00;4.50;;;;;;;;;;4955716;28;20550;-83
2022/05/16 05:29:57;;;;;;;4.47;3.97;;;;;;;;;;4966174;28;20182;-83
2022/05/16 05:33:01;;;;;;;6.63;4.33;;;;;;;;;;4966576;28;20182;-83
2022/05/16 05:36:06;;;;;;;6.10;4.37;;;;;;;;;;4975343;28;20193;-83
2022/05/16 05:39:16;;;;;;;7.67;4.70;;;;;;;;;;4962823;28;20194;-83
2022/05/16 05:42:20;;;;;;;7.87;4.67;;;;;;;;;;4971324;28;20218;-84
2022/05/16 05:45:24;;;;;;;6.17;4.67;;;;;;;;;;4982559;28;20221;-84
2022/05/16 05:48:28;;;;;;;8.03;4.23;;;;;;;;;;4984517;28;20206;-83
2022/05/16 05:51:32;;;;;;;4.87;4.13;;;;;;;;;;4955351;28;20182;-83
2022/05/16 05:54:36;;;;;;;9.03;4.80;;;;;;;;;;4987385;28;20221;-83
2022/05/16 05:57:40;;;;;;;8.57;4.50;;;;;;;;;;4988631;28;20182;-83
2022/05/16 06:00:45;;;;;;;9.17;5.03;;;;;;;;;;4951911;28;20223;-83
2022/05/16 06:03:49;;;;;;;9.90;5.13;;;;;;;;;;4952040;28;20180;-83
2022/05/16 06:06:53;;;;;;;7.27;4.73;;;;;;;;;;4958524;28;20194;-83
2022/05/16 06:09:58;;;;;;;9.00;4.47;;;;;;;;;;4971202;28;20194;-83
2022/05/16 06:13:02;;;;;;;7.07;4.43;;;;;;;;;;4962632;28;20191;-83
2022/05/16 06:16:08;;;;;;;7.43;4.93;;;;;;;;;;4973752;28;20210;-83
2022/05/16 06:19:12;;;;;;;6.10;4.13;;;;;;;;;;4964657;28;20186;-83
2022/05/16 06:22:16;;;;;;;8.23;4.40;;;;;;;;;;4981907;28;20214;-83
2022/05/16 06:25:42;;;;;;;8.03;4.70;;;;;;;;;;4971024;28;20225;-83
2022/05/16 06:28:46;;;;;;;7.37;4.73;;;;;;;;;;4962605;28;20199;-83
2022/05/16 06:31:51;;;;;;;5.60;4.37;;;;;;;;;;4953396;28;20185;-83
2022/05/16 06:34:56;;;;;;;8.83;4.67;;;;;;;;;;4985630;28;20214;-83
2022/05/16 06:38:08;;;;;;;12.30;5.07;;;;;;;;;;4964030;28;20174;-83
2022/05/16 06:41:12;;;;;;;12.80;4.90;;;;;;;;;;4963456;28;20546;-83
2022/05/16 06:44:19;;;;;;;13.00;5.73;;;;;;;;;;4985491;28;20221;-83
2022/05/16 06:47:24;;;;;;;8.50;4.37;;;;;;;;;;4964101;28;20182;-83
2022/05/16 06:50:30;;;;;;;7.50;4.80;;;;;;;;;;4963619;28;20198;-84
2022/05/16 06:53:34;;;;;;;4.77;4.10;;;;;;;;;;4969676;28;20194;-84
2022/05/16 06:56:38;;;;;;;5.63;3.80;;;;;;;;;;4970503;28;20195;-83
2022/05/16 06:59:43;;;;;;;7.43;4.20;;;;;;;;;;4975557;28;20198;-87
2022/05/16 07:02:48;;;;;;;7.37;4.13;;;;;;;;;;4989097;28;20225;-83
2022/05/16 07:05:52;;;;;;;4.80;3.70;;;;;;;;;;4969647;28;20214;-84
2022/05/16 07:08:56;;;;;;;7.43;3.30;;;;;;;;;;4975937;28;20193;-85
2022/05/16 07:12:01;;;;;;;4.87;3.50;;;;;;;;;;4962372;28;20186;-85
2022/05/16 07:15:05;;;;;;;11.97;3.30;;;;;;;;;;4974031;28;20230;-85
2022/05/16 07:18:10;;;;;;;5.57;3.10;;;;;;;;;;4974901;28;20194;-85
2022/05/16 07:21:14;;;;;;;7.10;3.13;;;;;;;;;;4953915;28;20189;-85
2022/05/16 07:24:18;;;;;;;7.00;3.33;;;;;;;;;;4985121;28;20218;-85
2022/05/16 07:30:45;;;;;;;5.07;3.47;;;;;;;;;;4977540;28;20183;-85
2022/05/16 07:33:49;;;;;;;10.17;3.33;;;;;;;;;;4984443;28;20193;-85
2022/05/16 07:36:53;;;;;;;5.53;2.97;;;;;;;;;;4962945;28;20201;-85
2022/05/16 07:39:58;;;;;;;5.30;3.00;;;;;;;;;;4984619;28;20194;-85
2022/05/16 07:43:03;;;;;;;4.20;2.93;;;;;;;;;;4984539;28;20214;-85
2022/05/16 07:46:07;;;;;;;5.50;3.07;;;;;;;;;;4983555;28;20201;-85
2022/05/16 07:49:13;;;;;;;7.87;3.00;;;;;;;;;;4962627;28;20190;-84
2022/05/16 07:52:17;;;;;;;5.90;3.27;;;;;;;;;;4984259;28;20202;-84
2022/05/16 07:55:23;;;;;;;3.73;3.10;;;;;;;;;;4962731;28;20693;-84
2022/05/16 07:58:27;;;;;;;6.37;3.20;;;;;;;;;;4973731;28;20652;-85
2022/05/16 08:01:32;;;;;;;6.20;2.83;;;;;;;;;;4962566;28;20210;-85
2022/05/16 08:04:36;;;;;;;7.73;3.40;;;;;;;;;;4956882;28;20218;-85
2022/05/16 08:11:04;;;;;;;6.57;3.70;;;;;;;;;;4984624;28;20186;-85
2022/05/16 08:14:08;;;;;;;6.40;3.37;;;;;;;;;;4944251;28;20571;-86
2022/05/16 08:17:12;;;;;;;8.40;3.50;;;;;;;;;;4954211;28;20634;-85
2022/05/16 08:20:17;;;;;;;4.77;3.50;;;;;;;;;;4943769;28;20175;-85
2022/05/16 08:23:28;;;;;;;5.20;3.63;;;;;;;;;;4958905;28;20676;-85
2022/05/16 08:26:31;;;;;;;4.87;3.50;;;;;;;;;;4994941;28;20669;-85
2022/05/16 08:29:36;;;;;;;7.40;4.00;;;;;;;;;;4984016;28;20190;-85
2022/05/16 08:32:40;;;;;;;4.63;3.40;;;;;;;;;;4953686;28;20534;-85
2022/05/16 08:35:44;;;;;;;9.07;3.93;;;;;;;;;;4983389;28;20562;-85
2022/05/16 08:42:12;;;;;;;7.93;3.23;;;;;;;;;;4982677;28;20214;-83
2022/05/16 08:45:27;;;;;;;13.83;3.80;;;;;;;;;;4975472;28;20224;-84
2022/05/16 08:48:44;;;;;;;3.83;3.40;;;;;;;;;;4968184;28;20187;-84
2022/05/16 08:51:54;;;;;;;4.47;3.00;;;;;;;;;;4984242;28;20181;-84
2022/05/16 08:55:29;;;;;;;4.43;2.93;;;;;;;;;;4953482;28;20223;-84
2022/05/16 08:58:39;;;;;;;5.03;2.83;;;;;;;;;;4965832;28;20183;-83
2022/05/16 09:01:56;;;;;;;5.23;2.80;;;;;;;;;;4983179;28;20206;-84
2022/05/16 09:05:12;;;;;;;21.40;3.63;;;;;;;;;;4964368;28;20227;-85
2022/05/16 09:08:29;;;;;;;10.43;3.10;;;;;;;;;;4964322;28;20183;-84
2022/05/16 09:11:47;;;;;;;7.00;3.07;;;;;;;;;;4983438;28;20187;-84
2022/05/16 09:14:52;;;;;;;6.07;3.30;;;;;;;;;;4983292;28;20574;-84
2022/05/16 09:18:22;;;;;;;6.47;3.30;;;;;;;;;;4975362;28;20191;-84
2022/05/16 09:21:43;;;;;;;7.17;3.37;;;;;;;;;;4961054;28;20191;-85
2022/05/16 09:25:04;;;;;;;3.60;2.67;;;;;;;;;;4962566;28;20228;-85
2022/05/16 09:31:39;;;;;;;4.37;2.77;;;;;;;;;;4983288;28;20182;-86
2022/05/16 09:34:43;;;;;;;6.43;2.97;;;;;;;;;;4960688;28;20226;-84
2022/05/16 09:37:49;;;;;;;5.43;2.73;;;;;;;;;;4972654;28;20190;-84
2022/05/16 09:40:58;;;;;;;6.27;2.67;;;;;;;;;;4983760;28;20202;-84
2022/05/16 09:44:19;;;;;;;3.47;2.53;;;;;;;;;;4982879;28;20225;-84
2022/05/16 09:47:35;;;;;;;8.03;3.27;;;;;;;;;;4974980;28;20195;-85
2022/05/16 09:50:39;;;;;;;3.97;2.83;;;;;;;;;;4973859;28;20190;-84
2022/05/16 09:53:44;;;;;;;6.73;2.90;;;;;;;;;;4960816;28;20190;-84
2022/05/16 09:56:55;;;;;;;4.63;2.70;;;;;;;;;;4969058;28;20194;-83
2022/05/16 10:00:42;;;;;;;10.20;3.10;;;;;;;;;;4960830;28;20190;-83
2022/05/16 10:03:49;;;;;;;4.30;2.60;;;;;;;;;;4956153;28;20210;-84
2022/05/16 10:07:02;;;;;;;5.90;3.07;;;;;;;;;;4985983;28;20182;-83
2022/05/16 10:10:09;;;;;;;5.63;2.50;;;;;;;;;;4977352;28;20186;-84
2022/05/16 10:13:15;;;;;;;4.00;2.53;;;;;;;;;;4993979;28;20182;-84
2022/05/16 10:16:20;;;;;;;3.77;2.07;;;;;;;;;;4994242;28;20181;-84
2022/05/16 10:19:27;;;;;;;6.00;2.53;;;;;;;;;;4976731;28;20194;-83
2022/05/16 10:22:32;;;;;;;8.40;2.70;;;;;;;;;;4967191;28;20214;-83
2022/05/16 10:25:41;;;;;;;3.60;2.30;;;;;;;;;;4978605;28;20539;-83
2022/05/16 10:28:51;;;;;;;7.07;2.70;;;;;;;;;;4981140;28;20665;-84
2022/05/16 10:35:29;;;;;;;4.03;2.57;;;;;;;;;;4988438;28;20217;-84
2022/05/16 10:38:52;;;;;;;6.00;2.33;;;;;;;;;;4970022;28;20198;-84
2022/05/16 10:42:04;;;;;;;9.50;2.40;;;;;;;;;;4991224;28;20183;-83
2022/05/16 10:45:16;;;;;;;5.43;2.70;;;;;;;;;;4968929;28;20233;-83
2022/05/16 10:48:36;;;;;;;5.03;2.47;;;;;;;;;;4979559;28;20194;-83
2022/05/16 10:51:49;;;;;;;6.70;2.20;;;;;;;;;;4990708;28;20198;-84
2022/05/16 10:54:53;;;;;;;11.30;2.40;;;;;;;;;;4959653;28;20219;-84
2022/05/16 10:58:05;;;;;;;4.00;2.70;;;;;;;;;;4950438;28;20194;-84
2022/05/16 11:01:46;;;;;;;5.73;2.70;;;;;;;;;;4966609;28;20538;-84
2022/05/16 11:05:09;;;;;;;3.40;2.23;;;;;;;;;;4966107;28;20697;-83
2022/05/16 11:08:16;;;;;;;3.23;2.50;;;;;;;;;;4969811;28;20198;-85
2022/05/16 11:11:36;;;;;;;3.23;2.27;;;;;;;;;;4970097;28;20182;-84
2022/05/16 11:14:53;;;;;;;2.87;2.43;;;;;;;;;;4979251;28;20226;-83
2022/05/16 11:18:09;;;;;;;3.77;2.90;;;;;;;;;;4959654;28;20195;-84
2022/05/16 11:21:38;;;;;;;3.00;2.40;;;;;;;;;;4980833;28;20198;-84
2022/05/16 11:25:09;;;;;;;3.33;2.23;;;;;;;;;;4994945;28;20210;-84
2022/05/16 11:28:16;;;;;;;4.87;2.43;;;;;;;;;;4971716;28;20178;-84
2022/05/16 11:31:23;;;;;;;2.87;2.13;;;;;;;;;;4992348;28;20202;-84
2022/05/16 11:34:49;;;;;;;3.70;2.50;;;;;;;;;;4981583;28;20214;-84
2022/05/16 11:38:12;;;;;;;4.77;3.10;;;;;;;;;;4991529;28;20198;-84
2022/05/16 11:41:27;;;;;;;3.30;2.10;;;;;;;;;;4964940;28;20186;-84
2022/05/16 11:44:42;;;;;;;5.73;2.60;;;;;;;;;;4970310;28;20235;-84
2022/05/16 11:47:59;;;;;;;3.23;2.30;;;;;;;;;;4970695;28;20633;-84
2022/05/16 11:51:23;;;;;;;6.77;2.60;;;;;;;;;;4971849;28;20194;-84
2022/05/16 11:54:36;;;;;;;4.77;3.00;;;;;;;;;;4993635;28;20213;-84
2022/05/16 12:01:25;;;;;;;4.63;2.93;;;;;;;;;;4993618;28;20203;-85
2022/05/16 12:04:39;;;;;;;2.63;2.30;;;;;;;;;;4982434;28;20704;-84
2022/05/16 12:08:01;;;;;;;4.07;2.57;;;;;;;;;;4970322;28;20198;-84
2022/05/16 12:11:05;;;;;;;4.43;2.42;;;;;;;;;;4970496;28;20229;-84
2022/05/16 12:14:25;;;;;;;4.25;2.67;;;;;;;;;;4972626;28;20224;-84
2022/05/16 12:17:30;;;;;;;3.25;2.00;;;;;;;;;;4970315;28;20195;-84
2022/05/16 12:20:42;;;;;;;4.07;2.10;;;;;;;;;;4991475;28;20179;-84
2022/05/16 12:23:50;;;;;;;2.55;1.80;;;;;;;;;;4991315;28;20216;-84
2022/05/16 12:27:25;;;;;;;4.40;1.88;;;;;;;;;;4990608;28;20193;-84
2022/05/16 12:30:31;;;;;;;2.30;1.73;;;;;;;;;;4972086;28;20191;-85
2022/05/16 12:33:41;;;;;;;3.72;1.73;;;;;;;;;;4949890;28;20182;-84
2022/05/16 12:36:46;;;;;;;2.17;1.95;;;;;;;;;;4950353;28;20201;-84
2022/05/16 12:39:53;;;;;;;4.00;2.00;;;;;;;;;;4980183;28;20205;-84
2022/05/16 12:43:15;;;;;;;5.32;1.73;;;;;;;;;;4961980;28;20234;-85
2022/05/16 12:46:25;;;;;;;4.00;2.30;;;;;;;;;;4985091;28;20186;-84
2022/05/16 12:49:53;;;;;;;2.10;1.90;;;;;;;;;;4950685;28;20183;-85
2022/05/16 12:53:06;;;;;;;2.88;2.00;;;;;;;;;;4954072;28;20185;-85
2022/05/16 12:56:33;;;;;;;3.72;2.38;;;;;;;;;;4947556;28;20549;-86
2022/05/16 12:59:56;;;;;;;3.10;1.95;;;;;;;;;;4958989;28;20188;-86
2022/05/16 13:03:30;;;;;;;5.30;2.10;;;;;;;;;;4975310;28;20661;-86
2022/05/16 13:07:04;;;;;;;2.72;1.83;;;;;;;;;;4986580;28;20197;-86
2022/05/16 13:10:39;;;;;;;3.33;2.10;;;;;;;;;;4974504;28;20189;-86
2022/05/16 13:14:23;;;;;;;3.20;2.28;;;;;;;;;;4955736;28;20187;-86
2022/05/16 13:17:44;;;;;;;5.30;2.25;;;;;;;;;;4984840;28;20198;-86
2022/05/16 13:20:51;;;;;;;3.80;2.08;;;;;;;;;;4954234;28;20206;-86
2022/05/16 13:23:57;;;;;;;4.20;2.25;;;;;;;;;;4988475;28;20215;-86
2022/05/16 13:30:27;;;;;;;4.80;2.08;;;;;;;;;;4994352;28;20182;-86
2022/05/16 13:33:35;;;;;;;5.28;2.17;;;;;;;;;;4971875;28;20198;-86
2022/05/16 13:36:46;;;;;;;3.70;2.13;;;;;;;;;;4961124;28;20523;-86
2022/05/16 13:39:55;;;;;;;4.45;2.03;;;;;;;;;;4941826;28;20649;-85
2022/05/16 13:43:00;;;;;;;8.35;2.10;;;;;;;;;;4963068;28;20188;-86
2022/05/16 13:46:08;;;;;;;5.85;2.22;;;;;;;;;;4953486;28;20180;-86
2022/05/16 13:49:13;;;;;;;6.22;2.28;;;;;;;;;;4969470;28;20646;-86
2022/05/16 13:52:26;;;;;;;4.65;2.40;;;;;;;;;;4973495;28;20657;-86
2022/05/16 13:55:30;;;;;;;5.07;2.53;;;;;;;;;;4962476;28;20220;-86
2022/05/16 13:58:34;;;;;;;2.97;2.10;;;;;;;;;;4984117;28;20206;-86
2022/05/16 14:01:49;;;;;;;6.90;2.33;;;;;;;;;;4954812;28;20550;-85
2022/05/16 14:04:55;;;;;;;6.13;2.30;;;;;;;;;;4985706;28;20233;-84
2022/05/16 14:08:03;;;;;;;7.32;2.53;;;;;;;;;;4966733;28;20265;-85
2022/05/16 14:11:11;;;;;;;4.55;2.33;;;;;;;;;;4955603;28;20202;-86
2022/05/16 14:14:20;;;;;;;3.45;2.00;;;;;;;;;;4986006;28;20233;-85
2022/05/16 14:17:41;;;;;;;5.53;2.05;;;;;;;;;;4985754;28;20190;-85
2022/05/16 14:20:47;;;;;;;4.03;2.17;;;;;;;;;;4975044;28;20547;-86
2022/05/16 14:23:58;;;;;;;4.47;2.33;;;;;;;;;;4953707;28;20216;-85
2022/05/16 14:27:02;;;;;;;5.13;2.70;;;;;;;;;;4949276;28;20183;-84
2022/05/16 14:30:22;;;;;;;10.13;2.80;;;;;;;;;;4958905;28;20202;-85
2022/05/16 14:33:31;;;;;;;8.02;2.67;;;;;;;;;;4959206;28;20652;-85
2022/05/16 14:36:40;;;;;;;4.38;2.42;;;;;;;;;;4981306;28;20209;-85
2022/05/16 14:39:49;;;;;;;9.73;2.42;;;;;;;;;;4987647;28;20537;-84
2022/05/16 14:43:37;;;;;;;17.10;2.20;;;;;;;;;;4966559;28;20184;-84
2022/05/16 14:46:45;;;;;;;14.80;2.33;;;;;;;;;;4981680;28;20192;-85
2022/05/16 14:49:50;;;;;;;33.73;4.40;;;;;;;;;;4960937;28;20202;-84
2022/05/16 14:53:01;;;;;;;10.30;2.70;;;;;;;;;;4986731;28;20547;-82
2022/05/16 14:56:05;;;;;;;8.70;2.57;;;;;;;;;;4983434;28;20183;-83
2022/05/16 14:59:09;;;;;;;6.97;2.50;;;;;;;;;;4988235;28;20186;-83
2022/05/16 15:05:37;;;;;;;8.17;2.47;;;;;;;;;;4994012;28;20226;-83
2022/05/16 15:08:45;;;;;;;8.43;2.60;;;;;;;;;;4985316;28;20205;-83
2022/05/16 15:12:01;;;;;;;8.60;2.90;;;;;;;;;;4974129;28;20182;-83
2022/05/16 15:15:06;;;;;;;10.60;2.70;;;;;;;;;;4965741;28;20222;-83
2022/05/16 15:18:10;;;;;;;8.03;2.77;;;;;;;;;;4966553;28;20191;-83
2022/05/16 15:21:17;;;;;;;10.20;2.53;;;;;;;;;;4981245;28;20534;-82
2022/05/16 15:24:21;;;;;;;11.10;2.70;;;;;;;;;;4996453;28;20225;-83
2022/05/16 15:27:26;;;;;;;6.47;2.83;;;;;;;;;;4974922;28;20545;-83
2022/05/16 15:30:30;;;;;;;7.97;3.03;;;;;;;;;;4986477;28;20557;-84
2022/05/16 15:33:34;;;;;;;6.30;3.70;;;;;;;;;;4966276;28;20206;-83
2022/05/16 15:36:39;;;;;;;6.57;3.07;;;;;;;;;;4997186;28;20202;-83
2022/05/16 15:39:43;;;;;;;11.23;2.80;;;;;;;;;;4975205;28;20202;-82
2022/05/16 15:42:48;;;;;;;4.03;2.40;;;;;;;;;;4974607;28;20557;-84
2022/05/16 15:45:52;;;;;;;7.83;2.57;;;;;;;;;;4974481;28;20226;-83
2022/05/16 15:48:56;;;;;;;6.63;2.53;;;;;;;;;;4986176;28;20186;-83
2022/05/16 15:52:01;;;;;;;5.27;2.60;;;;;;;;;;4965276;28;20190;-84
2022/05/16 15:55:07;;;;;;;5.27;2.50;;;;;;;;;;4955493;28;20223;-84
2022/05/16 15:58:12;;;;;;;5.20;2.27;;;;;;;;;;4985207;28;20186;-83
2022/05/16 16:01:16;;;;;;;3.60;2.17;;;;;;;;;;4985368;28;20194;-84
2022/05/16 16:11:06;;;;;;;5.57;2.37;;;;;;;;;;4982480;28;20206;-84
2022/05/16 16:14:12;;;;;;;4.07;2.40;;;;;;;;;;4947804;28;20230;-84
2022/05/16 16:17:16;;;;;;;6.23;2.57;;;;;;;;;;4980142;28;20194;-84
2022/05/16 16:20:24;;;;;;;6.33;2.57;;;;;;;;;;4979842;28;20198;-84
2022/05/16 16:23:29;;;;;;;5.17;2.27;;;;;;;;;;4979254;28;20665;-83
2022/05/16 16:26:34;;;;;;;3.10;2.20;;;;;;;;;;4990763;28;20178;-83
2022/05/16 16:29:38;;;;;;;3.70;2.33;;;;;;;;;;4988556;28;20209;-83
2022/05/16 16:32:43;;;;;;;5.27;2.47;;;;;;;;;;4987745;28;20205;-84
2022/05/16 16:35:47;;;;;;;7.73;2.50;;;;;;;;;;4970473;28;20219;-84
2022/05/16 16:38:52;;;;;;;8.07;3.50;;;;;;;;;;4982558;28;20202;-84
2022/05/16 16:41:56;;;;;;;6.63;2.80;;;;;;;;;;4960454;28;20202;-84
2022/05/16 16:45:01;;;;;;;3.90;2.47;;;;;;;;;;4981257;28;20227;-83
2022/05/16 16:48:05;;;;;;;3.87;2.60;;;;;;;;;;4966004;28;20201;-84
2022/05/16 16:58:20;;;;;;;8.90;2.30;;;;;;;;;;4975368;28;20202;-89
2022/05/16 17:01:27;;;;;;;4.97;2.23;;;;;;;;;;4972401;28;20198;-89
2022/05/16 17:04:32;;;;;;;3.13;2.27;;;;;;;;;;4953076;28;20571;-89
2022/05/16 17:07:38;;;;;;;7.10;2.40;;;;;;;;;;4961965;28;20669;-85
2022/05/16 17:10:53;;;;;;;3.70;2.27;;;;;;;;;;4975711;28;20194;-85
2022/05/16 17:13:57;;;;;;;3.83;2.10;;;;;;;;;;4987290;28;20201;-85
2022/05/16 17:17:01;;;;;;;5.27;2.70;;;;;;;;;;4967806;28;20210;-85
2022/05/16 17:20:07;;;;;;;8.30;2.90;;;;;;;;;;4976731;28;20194;-84
2022/05/16 17:23:14;;;;;;;6.93;2.93;;;;;;;;;;4969490;28;20201;-85
2022/05/16 17:26:18;;;;;;;4.53;2.70;;;;;;;;;;4979363;28;20229;-86
2022/05/16 17:29:24;;;;;;;5.63;2.50;;;;;;;;;;4986903;28;20190;-87
2022/05/16 17:32:28;;;;;;;40.53;4.30;;;;;;;;;;4953157;28;20653;-85
2022/05/16 17:35:32;;;;;;;5.60;2.47;;;;;;;;;;4956621;28;20222;-85
2022/05/16 17:38:36;;;;;;;4.97;2.80;;;;;;;;;;4966067;28;20183;-85
2022/05/16 17:41:42;;;;;;;6.30;2.83;;;;;;;;;;4984677;28;20189;-85
2022/05/16 17:44:46;;;;;;;6.40;2.97;;;;;;;;;;4963253;28;20574;-86
2022/05/16 17:47:51;;;;;;;4.80;3.00;;;;;;;;;;4955417;28;20195;-85
2022/05/16 17:50:57;;;;;;;6.30;2.63;;;;;;;;;;4973925;28;20202;-85
2022/05/16 17:54:09;;;;;;;8.83;2.63;;;;;;;;;;4974714;28;20210;-86
2022/05/16 17:57:16;;;;;;;4.77;2.90;;;;;;;;;;4996222;28;20193;-86
2022/05/16 18:00:20;;;;;;;5.90;2.67;;;;;;;;;;4960479;28;20186;-85
2022/05/16 18:03:24;;;;;;;5.47;2.43;;;;;;;;;;4975872;28;20665;-85
2022/05/16 18:06:28;;;;;;;8.87;3.00;;;;;;;;;;4967217;28;20206;-85
2022/05/16 18:09:33;;;;;;;6.23;3.00;;;;;;;;;;4963944;28;20190;-85
2022/05/16 18:12:44;;;;;;;6.83;3.00;;;;;;;;;;4957165;28;20191;-86
2022/05/16 18:15:48;;;;;;;5.13;2.63;;;;;;;;;;4964403;28;20214;-85
2022/05/16 18:18:53;;;;;;;4.53;3.10;;;;;;;;;;4991519;28;20194;-85
2022/05/16 18:21:57;;;;;;;6.00;2.60;;;;;;;;;;4963863;28;20186;-85
2022/05/16 18:25:09;;;;;;;6.97;2.80;;;;;;;;;;4964565;28;20221;-85
2022/05/16 18:28:15;;;;;;;5.37;2.60;;;;;;;;;;4986959;28;20190;-85
2022/05/16 18:31:20;;;;;;;6.10;2.50;;;;;;;;;;4976511;28;20542;-85
2022/05/16 18:34:24;;;;;;;6.10;2.70;;;;;;;;;;4979443;28;20221;-85
2022/05/16 18:37:28;;;;;;;5.77;2.80;;;;;;;;;;4961849;28;20193;-85
2022/05/16 18:40:33;;;;;;;4.17;2.60;;;;;;;;;;4977936;28;20182;-85
2022/05/16 18:53:49;;;;;;;7.40;3.53;;;;;;;;;;5000456;28;20190;-85
2022/05/16 18:56:54;;;;;;;8.97;3.70;;;;;;;;;;4987220;28;20190;-84
2022/05/16 18:59:58;;;;;;;5.50;2.70;;;;;;;;;;4985190;28;20538;-84
2022/05/16 19:03:04;;;;;;;4.87;2.80;;;;;;;;;;4974488;28;20186;-84
2022/05/16 19:06:09;;;;;;;3.10;2.80;;;;;;;;;;4985658;28;20206;-84
2022/05/16 19:09:13;;;;;;;4.87;2.67;;;;;;;;;;4974323;28;20194;-85
2022/05/16 19:12:17;;;;;;;6.93;3.20;;;;;;;;;;4977141;28;20190;-85
2022/05/16 19:15:22;;;;;;;3.97;2.87;;;;;;;;;;4984946;28;20229;-85
2022/05/16 19:18:26;;;;;;;10.77;3.30;;;;;;;;;;4963838;28;20194;-85
2022/05/16 19:21:37;;;;;;;6.97;3.03;;;;;;;;;;4974140;28;20190;-85
2022/05/16 19:24:41;;;;;;;7.03;3.40;;;;;;;;;;4985176;28;20222;-84
2022/05/16 19:34:37;;;;;;;5.80;2.73;;;;;;;;;;4984800;28;20230;-84
2022/05/16 19:37:43;;;;;;;4.03;2.60;;;;;;;;;;4962728;28;20195;-85
2022/05/16 19:40:48;;;;;;;10.13;2.80;;;;;;;;;;4962401;28;20178;-85
2022/05/16 19:43:53;;;;;;;6.33;2.90;;;;;;;;;;4985208;28;20641;-87
2022/05/16 19:46:57;;;;;;;5.03;2.70;;;;;;;;;;4962179;28;20681;-85
2022/05/16 19:50:02;;;;;;;6.23;2.90;;;;;;;;;;4974406;28;20630;-85
2022/05/16 19:53:07;;;;;;;8.37;2.67;;;;;;;;;;4985229;28;20182;-85
2022/05/16 19:56:11;;;;;;;5.63;3.00;;;;;;;;;;4985231;28;20539;-85
2022/05/16 19:59:16;;;;;;;4.97;3.07;;;;;;;;;;4954902;28;20199;-84
2022/05/16 20:02:20;;;;;;;2.80;2.57;;;;;;;;;;4979603;28;20198;-85